sensor_id;sensor_type;location;lat;lon;timestamp;P1;durP1;ratioP1;P2;durP2;ratioP2
46348;SDS011;32057;47.830;19.046;2022-10-16T00:00:31;2.47;;;2.20;;
46348;SDS011;32057;47.830;19.046;2022-10-16T00:02:58;11.98;;;3.45;;
46348;SDS011;32057;47.830;19.046;2022-10-16T00:05:23;3.92;;;2.78;;
46348;SDS011;32057;47.830;19.046;2022-10-16T00:07:49;5.05;;;3.45;;
46348;SDS011;32057;47.830;19.046;2022-10-16T00:10:14;6.32;;;3.47;;
46348;SDS011;32057;47.830;19.046;2022-10-16T00:12:40;2.70;;;2.30;;
46348;SDS011;32057;47.830;19.046;2022-10-16T00:15:05;3.80;;;3.40;;
46348;SDS011;32057;47.830;19.046;2022-10-16T00:17:31;4.07;;;2.60;;
46348;SDS011;32057;47.830;19.046;2022-10-16T00:19:57;4.13;;;2.85;;
46348;SDS011;32057;47.830;19.046;2022-10-16T00:22:23;11.10;;;2.78;;
46348;SDS011;32057;47.830;19.046;2022-10-16T00:24:49;3.38;;;2.67;;
46348;SDS011;32057;47.830;19.046;2022-10-16T00:27:14;3.17;;;2.67;;
46348;SDS011;32057;47.830;19.046;2022-10-16T00:29:40;2.60;;;2.33;;
46348;SDS011;32057;47.830;19.046;2022-10-16T00:32:05;2.70;;;2.42;;
46348;SDS011;32057;47.830;19.046;2022-10-16T00:34:30;2.20;;;2.05;;
46348;SDS011;32057;47.830;19.046;2022-10-16T00:36:56;4.22;;;3.00;;
46348;SDS011;32057;47.830;19.046;2022-10-16T00:39:21;5.95;;;2.83;;
46348;SDS011;32057;47.830;19.046;2022-10-16T00:41:47;2.65;;;2.35;;
46348;SDS011;32057;47.830;19.046;2022-10-16T00:47:27;3.22;;;2.45;;
46348;SDS011;32057;47.830;19.046;2022-10-16T00:49:58;2.75;;;2.33;;
46348;SDS011;32057;47.830;19.046;2022-10-16T00:52:27;3.15;;;2.22;;
46348;SDS011;32057;47.830;19.046;2022-10-16T00:54:53;3.38;;;2.88;;
46348;SDS011;32057;47.830;19.046;2022-10-16T00:57:19;4.47;;;2.47;;
46348;SDS011;32057;47.830;19.046;2022-10-16T00:59:45;4.28;;;3.13;;
46348;SDS011;32057;47.830;19.046;2022-10-16T01:02:12;3.75;;;2.47;;
46348;SDS011;32057;47.830;19.046;2022-10-16T01:04:46;1.98;;;1.88;;
46348;SDS011;32057;47.830;19.046;2022-10-16T01:20:26;3.60;;;2.80;;
46348;SDS011;32057;47.830;19.046;2022-10-16T01:28:08;5.25;;;2.38;;
46348;SDS011;32057;47.830;19.046;2022-10-16T01:30:37;4.63;;;2.63;;
46348;SDS011;32057;47.830;19.046;2022-10-16T01:33:13;2.58;;;2.15;;
46348;SDS011;32057;47.830;19.046;2022-10-16T01:35:53;6.07;;;2.85;;
46348;SDS011;32057;47.830;19.046;2022-10-16T01:38:36;2.60;;;2.40;;
46348;SDS011;32057;47.830;19.046;2022-10-16T01:41:06;3.38;;;3.08;;
46348;SDS011;32057;47.830;19.046;2022-10-16T01:43:40;5.70;;;2.88;;
46348;SDS011;32057;47.830;19.046;2022-10-16T01:46:27;2.30;;;2.10;;
46348;SDS011;32057;47.830;19.046;2022-10-16T01:48:55;6.70;;;3.00;;
46348;SDS011;32057;47.830;19.046;2022-10-16T01:51:22;3.80;;;2.47;;
46348;SDS011;32057;47.830;19.046;2022-10-16T01:53:50;4.95;;;2.33;;
46348;SDS011;32057;47.830;19.046;2022-10-16T01:56:19;2.97;;;2.78;;
46348;SDS011;32057;47.830;19.046;2022-10-16T01:59:04;4.38;;;2.33;;
46348;SDS011;32057;47.830;19.046;2022-10-16T02:01:35;2.67;;;1.92;;
46348;SDS011;32057;47.830;19.046;2022-10-16T02:04:04;2.60;;;2.40;;
46348;SDS011;32057;47.830;19.046;2022-10-16T02:06:37;4.03;;;2.30;;
46348;SDS011;32057;47.830;19.046;2022-10-16T02:09:03;4.57;;;2.50;;
46348;SDS011;32057;47.830;19.046;2022-10-16T02:11:28;2.60;;;2.40;;
46348;SDS011;32057;47.830;19.046;2022-10-16T02:13:55;4.25;;;3.00;;
46348;SDS011;32057;47.830;19.046;2022-10-16T02:16:41;3.70;;;2.05;;
46348;SDS011;32057;47.830;19.046;2022-10-16T02:19:09;2.90;;;2.60;;
46348;SDS011;32057;47.830;19.046;2022-10-16T02:21:40;3.55;;;2.45;;
46348;SDS011;32057;47.830;19.046;2022-10-16T02:29:25;2.40;;;2.20;;
46348;SDS011;32057;47.830;19.046;2022-10-16T02:31:53;3.65;;;2.65;;
46348;SDS011;32057;47.830;19.046;2022-10-16T02:34:24;3.03;;;2.55;;
46348;SDS011;32057;47.830;19.046;2022-10-16T02:36:51;6.38;;;2.05;;
46348;SDS011;32057;47.830;19.046;2022-10-16T02:39:18;2.35;;;2.15;;
46348;SDS011;32057;47.830;19.046;2022-10-16T02:41:45;2.95;;;2.47;;
46348;SDS011;32057;47.830;19.046;2022-10-16T02:44:10;3.00;;;2.63;;
46348;SDS011;32057;47.830;19.046;2022-10-16T02:46:36;4.15;;;3.28;;
46348;SDS011;32057;47.830;19.046;2022-10-16T02:49:01;2.80;;;2.58;;
46348;SDS011;32057;47.830;19.046;2022-10-16T02:51:27;5.90;;;3.03;;
46348;SDS011;32057;47.830;19.046;2022-10-16T02:53:53;2.75;;;2.53;;
46348;SDS011;32057;47.830;19.046;2022-10-16T02:56:18;2.92;;;1.95;;
46348;SDS011;32057;47.830;19.046;2022-10-16T02:58:43;3.20;;;2.17;;
46348;SDS011;32057;47.830;19.046;2022-10-16T03:01:09;3.53;;;2.45;;
46348;SDS011;32057;47.830;19.046;2022-10-16T03:03:34;4.25;;;2.75;;
46348;SDS011;32057;47.830;19.046;2022-10-16T03:06:00;2.95;;;2.67;;
46348;SDS011;32057;47.830;19.046;2022-10-16T03:08:25;4.13;;;2.40;;
46348;SDS011;32057;47.830;19.046;2022-10-16T03:10:51;3.25;;;2.80;;
46348;SDS011;32057;47.830;19.046;2022-10-16T03:13:17;4.78;;;2.95;;
46348;SDS011;32057;47.830;19.046;2022-10-16T03:15:45;3.65;;;2.28;;
46348;SDS011;32057;47.830;19.046;2022-10-16T03:18:10;3.30;;;2.25;;
46348;SDS011;32057;47.830;19.046;2022-10-16T03:20:36;3.08;;;2.65;;
46348;SDS011;32057;47.830;19.046;2022-10-16T03:23:01;3.47;;;1.75;;
46348;SDS011;32057;47.830;19.046;2022-10-16T03:25:27;2.47;;;1.88;;
46348;SDS011;32057;47.830;19.046;2022-10-16T03:27:53;2.65;;;1.98;;
46348;SDS011;32057;47.830;19.046;2022-10-16T03:30:18;2.53;;;1.92;;
46348;SDS011;32057;47.830;19.046;2022-10-16T03:32:44;2.58;;;2.38;;
46348;SDS011;32057;47.830;19.046;2022-10-16T03:35:10;3.33;;;2.33;;
46348;SDS011;32057;47.830;19.046;2022-10-16T03:37:35;3.67;;;2.35;;
46348;SDS011;32057;47.830;19.046;2022-10-16T03:40:02;7.25;;;2.33;;
46348;SDS011;32057;47.830;19.046;2022-10-16T03:42:28;2.30;;;1.77;;
46348;SDS011;32057;47.830;19.046;2022-10-16T03:44:54;2.95;;;1.95;;
46348;SDS011;32057;47.830;19.046;2022-10-16T03:47:19;6.45;;;2.40;;
46348;SDS011;32057;47.830;19.046;2022-10-16T03:49:47;6.55;;;2.78;;
46348;SDS011;32057;47.830;19.046;2022-10-16T03:52:13;2.50;;;2.30;;
46348;SDS011;32057;47.830;19.046;2022-10-16T03:54:38;3.65;;;2.72;;
46348;SDS011;32057;47.830;19.046;2022-10-16T03:57:04;2.70;;;2.15;;
46348;SDS011;32057;47.830;19.046;2022-10-16T03:59:30;3.33;;;2.35;;
46348;SDS011;32057;47.830;19.046;2022-10-16T04:01:55;2.70;;;2.03;;
46348;SDS011;32057;47.830;19.046;2022-10-16T04:04:21;3.38;;;2.00;;
46348;SDS011;32057;47.830;19.046;2022-10-16T04:06:46;3.15;;;2.75;;
46348;SDS011;32057;47.830;19.046;2022-10-16T04:09:12;2.35;;;1.63;;
46348;SDS011;32057;47.830;19.046;2022-10-16T04:11:37;4.40;;;2.60;;
46348;SDS011;32057;47.830;19.046;2022-10-16T04:14:03;2.70;;;2.33;;
46348;SDS011;32057;47.830;19.046;2022-10-16T04:16:29;4.13;;;3.05;;
46348;SDS011;32057;47.830;19.046;2022-10-16T04:18:54;3.42;;;1.80;;
46348;SDS011;32057;47.830;19.046;2022-10-16T04:21:20;2.00;;;1.75;;
46348;SDS011;32057;47.830;19.046;2022-10-16T04:23:45;3.60;;;3.22;;
46348;SDS011;32057;47.830;19.046;2022-10-16T04:26:11;2.45;;;2.25;;
46348;SDS011;32057;47.830;19.046;2022-10-16T04:28:36;7.75;;;2.35;;
46348;SDS011;32057;47.830;19.046;2022-10-16T04:31:05;1.63;;;1.52;;
46348;SDS011;32057;47.830;19.046;2022-10-16T04:33:31;5.72;;;2.65;;
46348;SDS011;32057;47.830;19.046;2022-10-16T04:35:57;2.50;;;2.30;;
46348;SDS011;32057;47.830;19.046;2022-10-16T04:38:24;4.50;;;3.03;;
46348;SDS011;32057;47.830;19.046;2022-10-16T04:40:50;2.25;;;2.00;;
46348;SDS011;32057;47.830;19.046;2022-10-16T04:43:15;6.65;;;3.28;;
46348;SDS011;32057;47.830;19.046;2022-10-16T04:45:41;4.32;;;2.15;;
46348;SDS011;32057;47.830;19.046;2022-10-16T04:48:06;1.85;;;1.40;;
46348;SDS011;32057;47.830;19.046;2022-10-16T04:50:32;2.95;;;2.00;;
46348;SDS011;32057;47.830;19.046;2022-10-16T04:52:57;2.85;;;2.22;;
46348;SDS011;32057;47.830;19.046;2022-10-16T04:55:22;2.45;;;1.80;;
46348;SDS011;32057;47.830;19.046;2022-10-16T04:57:48;1.85;;;1.70;;
46348;SDS011;32057;47.830;19.046;2022-10-16T05:00:13;2.25;;;2.05;;
46348;SDS011;32057;47.830;19.046;2022-10-16T05:02:39;16.35;;;2.13;;
46348;SDS011;32057;47.830;19.046;2022-10-16T05:05:04;1.60;;;1.50;;
46348;SDS011;32057;47.830;19.046;2022-10-16T05:07:30;1.92;;;1.83;;
46348;SDS011;32057;47.830;19.046;2022-10-16T05:09:55;4.80;;;2.13;;
46348;SDS011;32057;47.830;19.046;2022-10-16T05:12:21;2.33;;;1.95;;
46348;SDS011;32057;47.830;19.046;2022-10-16T05:14:46;3.20;;;1.92;;
46348;SDS011;32057;47.830;19.046;2022-10-16T05:17:12;2.90;;;2.08;;
46348;SDS011;32057;47.830;19.046;2022-10-16T05:19:37;2.35;;;1.88;;
46348;SDS011;32057;47.830;19.046;2022-10-16T05:22:03;2.38;;;2.17;;
46348;SDS011;32057;47.830;19.046;2022-10-16T05:24:28;2.55;;;2.20;;
46348;SDS011;32057;47.830;19.046;2022-10-16T05:26:53;1.45;;;1.33;;
46348;SDS011;32057;47.830;19.046;2022-10-16T05:29:19;2.05;;;1.85;;
46348;SDS011;32057;47.830;19.046;2022-10-16T05:31:45;2.28;;;1.88;;
46348;SDS011;32057;47.830;19.046;2022-10-16T05:34:10;5.28;;;2.35;;
46348;SDS011;32057;47.830;19.046;2022-10-16T05:36:35;2.55;;;1.60;;
46348;SDS011;32057;47.830;19.046;2022-10-16T05:39:01;1.63;;;1.42;;
46348;SDS011;32057;47.830;19.046;2022-10-16T05:41:27;1.90;;;1.67;;
46348;SDS011;32057;47.830;19.046;2022-10-16T05:43:53;3.75;;;1.90;;
46348;SDS011;32057;47.830;19.046;2022-10-16T05:46:18;1.98;;;1.88;;
46348;SDS011;32057;47.830;19.046;2022-10-16T05:48:44;3.05;;;2.75;;
46348;SDS011;32057;47.830;19.046;2022-10-16T05:51:11;2.40;;;2.03;;
46348;SDS011;32057;47.830;19.046;2022-10-16T05:53:38;7.15;;;1.60;;
46348;SDS011;32057;47.830;19.046;2022-10-16T05:56:04;7.78;;;3.28;;
46348;SDS011;32057;47.830;19.046;2022-10-16T05:58:32;2.67;;;2.47;;
46348;SDS011;32057;47.830;19.046;2022-10-16T06:01:04;2.60;;;2.40;;
46348;SDS011;32057;47.830;19.046;2022-10-16T06:03:32;1.50;;;1.40;;
46348;SDS011;32057;47.830;19.046;2022-10-16T06:05:58;2.17;;;1.70;;
46348;SDS011;32057;47.830;19.046;2022-10-16T06:08:23;3.15;;;2.58;;
46348;SDS011;32057;47.830;19.046;2022-10-16T06:10:59;1.77;;;1.65;;
46348;SDS011;32057;47.830;19.046;2022-10-16T06:13:29;2.78;;;2.30;;
46348;SDS011;32057;47.830;19.046;2022-10-16T06:15:56;2.65;;;2.45;;
46348;SDS011;32057;47.830;19.046;2022-10-16T06:18:24;2.08;;;1.88;;
46348;SDS011;32057;47.830;19.046;2022-10-16T06:20:50;3.35;;;2.65;;
46348;SDS011;32057;47.830;19.046;2022-10-16T06:23:15;4.68;;;3.58;;
46348;SDS011;32057;47.830;19.046;2022-10-16T06:25:41;2.50;;;2.28;;
46348;SDS011;32057;47.830;19.046;2022-10-16T06:28:06;4.80;;;2.53;;
46348;SDS011;32057;47.830;19.046;2022-10-16T06:30:31;5.25;;;3.30;;
46348;SDS011;32057;47.830;19.046;2022-10-16T06:33:00;9.00;;;5.07;;
46348;SDS011;32057;47.830;19.046;2022-10-16T06:35:26;5.88;;;3.63;;
46348;SDS011;32057;47.830;19.046;2022-10-16T06:37:52;5.75;;;3.08;;
46348;SDS011;32057;47.830;19.046;2022-10-16T06:40:18;4.30;;;3.33;;
46348;SDS011;32057;47.830;19.046;2022-10-16T06:42:43;3.50;;;3.03;;
46348;SDS011;32057;47.830;19.046;2022-10-16T06:45:10;2.45;;;2.25;;
46348;SDS011;32057;47.830;19.046;2022-10-16T06:47:35;2.97;;;2.72;;
46348;SDS011;32057;47.830;19.046;2022-10-16T06:50:01;3.40;;;2.88;;
46348;SDS011;32057;47.830;19.046;2022-10-16T06:52:35;3.00;;;2.75;;
46348;SDS011;32057;47.830;19.046;2022-10-16T06:55:03;3.22;;;2.88;;
46348;SDS011;32057;47.830;19.046;2022-10-16T06:57:32;3.15;;;2.83;;
46348;SDS011;32057;47.830;19.046;2022-10-16T07:05:27;2.60;;;2.40;;
46348;SDS011;32057;47.830;19.046;2022-10-16T07:08:22;11.23;;;2.60;;
46348;SDS011;32057;47.830;19.046;2022-10-16T07:11:34;2.13;;;1.92;;
46348;SDS011;32057;47.830;19.046;2022-10-16T07:14:18;4.30;;;2.58;;
46348;SDS011;32057;47.830;19.046;2022-10-16T07:16:55;10.07;;;2.45;;
46348;SDS011;32057;47.830;19.046;2022-10-16T07:19:36;7.45;;;3.08;;
46348;SDS011;32057;47.830;19.046;2022-10-16T07:22:02;3.17;;;2.85;;
46348;SDS011;32057;47.830;19.046;2022-10-16T07:24:34;4.00;;;2.65;;
46348;SDS011;32057;47.830;19.046;2022-10-16T07:27:00;2.22;;;1.73;;
46348;SDS011;32057;47.830;19.046;2022-10-16T07:29:37;2.42;;;2.15;;
46348;SDS011;32057;47.830;19.046;2022-10-16T07:32:10;2.50;;;2.30;;
46348;SDS011;32057;47.830;19.046;2022-10-16T07:34:56;3.60;;;3.10;;
46348;SDS011;32057;47.830;19.046;2022-10-16T07:37:29;2.05;;;1.90;;
46348;SDS011;32057;47.830;19.046;2022-10-16T07:42:23;1.50;;;1.38;;
46348;SDS011;32057;47.830;19.046;2022-10-16T07:44:48;3.60;;;2.55;;
46348;SDS011;32057;47.830;19.046;2022-10-16T07:47:13;2.55;;;2.30;;
46348;SDS011;32057;47.830;19.046;2022-10-16T07:49:39;3.97;;;2.58;;
46348;SDS011;32057;47.830;19.046;2022-10-16T07:52:04;5.05;;;2.88;;
46348;SDS011;32057;47.830;19.046;2022-10-16T07:54:33;3.83;;;2.42;;
46348;SDS011;32057;47.830;19.046;2022-10-16T08:36:54;2.42;;;2.22;;
46348;SDS011;32057;47.830;19.046;2022-10-16T08:47:49;2.17;;;2.03;;
46348;SDS011;32057;47.830;19.046;2022-10-16T08:50:26;2.92;;;2.50;;
46348;SDS011;32057;47.830;19.046;2022-10-16T08:52:53;3.30;;;2.70;;
46348;SDS011;32057;47.830;19.046;2022-10-16T08:55:41;2.58;;;1.95;;
46348;SDS011;32057;47.830;19.046;2022-10-16T08:58:13;5.90;;;2.88;;
46348;SDS011;32057;47.830;19.046;2022-10-16T09:00:42;4.22;;;2.67;;
46348;SDS011;32057;47.830;19.046;2022-10-16T09:03:21;3.45;;;2.83;;
46348;SDS011;32057;47.830;19.046;2022-10-16T09:11:02;2.22;;;2.03;;
46348;SDS011;32057;47.830;19.046;2022-10-16T09:16:28;7.13;;;2.55;;
46348;SDS011;32057;47.830;19.046;2022-10-16T09:19:22;2.25;;;2.03;;
46348;SDS011;32057;47.830;19.046;2022-10-16T09:21:55;3.83;;;3.25;;
46348;SDS011;32057;47.830;19.046;2022-10-16T09:24:22;4.60;;;1.95;;
46348;SDS011;32057;47.830;19.046;2022-10-16T09:26:50;7.40;;;2.58;;
46348;SDS011;32057;47.830;19.046;2022-10-16T09:29:16;4.50;;;2.63;;
46348;SDS011;32057;47.830;19.046;2022-10-16T09:31:45;3.85;;;3.53;;
46348;SDS011;32057;47.830;19.046;2022-10-16T09:34:18;3.67;;;3.22;;
46348;SDS011;32057;47.830;19.046;2022-10-16T09:36:54;4.55;;;2.35;;
46348;SDS011;32057;47.830;19.046;2022-10-16T09:39:22;2.42;;;2.22;;
46348;SDS011;32057;47.830;19.046;2022-10-16T09:41:48;3.75;;;2.83;;
46348;SDS011;32057;47.830;19.046;2022-10-16T09:46:43;3.55;;;2.30;;
46348;SDS011;32057;47.830;19.046;2022-10-16T09:51:45;3.92;;;2.78;;
46348;SDS011;32057;47.830;19.046;2022-10-16T09:54:15;2.88;;;2.60;;
46348;SDS011;32057;47.830;19.046;2022-10-16T09:56:45;4.65;;;2.45;;
46348;SDS011;32057;47.830;19.046;2022-10-16T09:59:18;5.43;;;3.28;;
46348;SDS011;32057;47.830;19.046;2022-10-16T10:01:51;3.75;;;2.58;;
46348;SDS011;32057;47.830;19.046;2022-10-16T10:04:18;2.63;;;2.25;;
46348;SDS011;32057;47.830;19.046;2022-10-16T10:09:23;3.78;;;2.97;;
46348;SDS011;32057;47.830;19.046;2022-10-16T10:11:55;3.22;;;2.70;;
46348;SDS011;32057;47.830;19.046;2022-10-16T10:14:35;3.42;;;2.50;;
46348;SDS011;32057;47.830;19.046;2022-10-16T10:22:19;3.10;;;2.28;;
46348;SDS011;32057;47.830;19.046;2022-10-16T10:35:54;4.25;;;3.30;;
46348;SDS011;32057;47.830;19.046;2022-10-16T10:38:49;2.70;;;2.28;;
46348;SDS011;32057;47.830;19.046;2022-10-16T10:41:21;2.80;;;2.35;;
46348;SDS011;32057;47.830;19.046;2022-10-16T10:46:35;3.72;;;1.98;;
46348;SDS011;32057;47.830;19.046;2022-10-16T10:49:10;4.15;;;2.25;;
46348;SDS011;32057;47.830;19.046;2022-10-16T10:51:44;2.08;;;1.90;;
46348;SDS011;32057;47.830;19.046;2022-10-16T10:58:00;4.85;;;2.60;;
46348;SDS011;32057;47.830;19.046;2022-10-16T11:05:43;3.25;;;2.47;;
46348;SDS011;32057;47.830;19.046;2022-10-16T11:08:13;6.88;;;3.67;;
46348;SDS011;32057;47.830;19.046;2022-10-16T11:15:58;4.78;;;3.08;;
46348;SDS011;32057;47.830;19.046;2022-10-16T11:18:32;3.55;;;1.90;;
46348;SDS011;32057;47.830;19.046;2022-10-16T11:21:11;1.75;;;1.65;;
46348;SDS011;32057;47.830;19.046;2022-10-16T11:26:22;4.18;;;2.40;;
46348;SDS011;32057;47.830;19.046;2022-10-16T11:28:53;2.95;;;2.38;;
46348;SDS011;32057;47.830;19.046;2022-10-16T11:47:36;13.45;;;2.75;;
46348;SDS011;32057;47.830;19.046;2022-10-16T11:53:11;3.28;;;1.85;;
46348;SDS011;32057;47.830;19.046;2022-10-16T11:56:17;3.60;;;2.13;;
46348;SDS011;32057;47.830;19.046;2022-10-16T11:58:51;1.90;;;1.73;;
46348;SDS011;32057;47.830;19.046;2022-10-16T12:01:24;2.47;;;2.28;;
46348;SDS011;32057;47.830;19.046;2022-10-16T12:04:02;6.95;;;2.35;;
46348;SDS011;32057;47.830;19.046;2022-10-16T12:06:59;2.17;;;1.70;;
46348;SDS011;32057;47.830;19.046;2022-10-16T12:09:31;1.67;;;1.50;;
46348;SDS011;32057;47.830;19.046;2022-10-16T12:11:59;10.48;;;2.97;;
46348;SDS011;32057;47.830;19.046;2022-10-16T12:14:36;2.30;;;2.05;;
46348;SDS011;32057;47.830;19.046;2022-10-16T12:17:04;4.15;;;2.13;;
46348;SDS011;32057;47.830;19.046;2022-10-16T12:19:58;2.28;;;2.08;;
46348;SDS011;32057;47.830;19.046;2022-10-16T12:22:27;2.50;;;2.20;;
46348;SDS011;32057;47.830;19.046;2022-10-16T12:24:56;3.45;;;1.60;;
46348;SDS011;32057;47.830;19.046;2022-10-16T12:27:29;2.17;;;1.60;;
46348;SDS011;32057;47.830;19.046;2022-10-16T12:29:57;2.00;;;1.73;;
46348;SDS011;32057;47.830;19.046;2022-10-16T12:32:37;4.35;;;2.03;;
46348;SDS011;32057;47.830;19.046;2022-10-16T12:35:05;2.10;;;1.73;;
46348;SDS011;32057;47.830;19.046;2022-10-16T12:37:42;2.10;;;1.90;;
46348;SDS011;32057;47.830;19.046;2022-10-16T12:40:25;2.42;;;2.10;;
46348;SDS011;32057;47.830;19.046;2022-10-16T12:42:54;4.80;;;1.92;;
46348;SDS011;32057;47.830;19.046;2022-10-16T12:45:25;1.80;;;1.67;;
46348;SDS011;32057;47.830;19.046;2022-10-16T12:47:56;1.95;;;1.85;;
46348;SDS011;32057;47.830;19.046;2022-10-16T12:50:38;1.70;;;1.60;;
46348;SDS011;32057;47.830;19.046;2022-10-16T12:56:04;2.75;;;2.35;;
46348;SDS011;32057;47.830;19.046;2022-10-16T13:01:40;3.28;;;1.52;;
46348;SDS011;32057;47.830;19.046;2022-10-16T13:04:19;3.08;;;1.73;;
46348;SDS011;32057;47.830;19.046;2022-10-16T13:23:15;2.10;;;1.70;;
46348;SDS011;32057;47.830;19.046;2022-10-16T13:26:00;2.17;;;1.83;;
46348;SDS011;32057;47.830;19.046;2022-10-16T13:28:30;3.92;;;1.48;;
46348;SDS011;32057;47.830;19.046;2022-10-16T13:30:58;2.10;;;1.90;;
46348;SDS011;32057;47.830;19.046;2022-10-16T13:33:33;2.05;;;1.60;;
46348;SDS011;32057;47.830;19.046;2022-10-16T13:36:03;2.25;;;1.50;;
46348;SDS011;32057;47.830;19.046;2022-10-16T13:38:30;2.63;;;1.52;;
46348;SDS011;32057;47.830;19.046;2022-10-16T13:43:35;1.88;;;1.77;;
46348;SDS011;32057;47.830;19.046;2022-10-16T13:46:06;2.80;;;1.75;;
46348;SDS011;32057;47.830;19.046;2022-10-16T13:48:37;1.73;;;1.58;;
46348;SDS011;32057;47.830;19.046;2022-10-16T13:53:31;1.45;;;1.27;;
46348;SDS011;32057;47.830;19.046;2022-10-16T13:55:57;2.22;;;1.75;;
46348;SDS011;32057;47.830;19.046;2022-10-16T13:58:25;2.53;;;2.33;;
46348;SDS011;32057;47.830;19.046;2022-10-16T14:00:55;3.40;;;1.70;;
46348;SDS011;32057;47.830;19.046;2022-10-16T14:03:25;3.05;;;1.63;;
46348;SDS011;32057;47.830;19.046;2022-10-16T14:05:52;1.75;;;1.60;;
46348;SDS011;32057;47.830;19.046;2022-10-16T14:08:24;2.75;;;2.05;;
46348;SDS011;32057;47.830;19.046;2022-10-16T14:10:56;1.60;;;1.33;;
46348;SDS011;32057;47.830;19.046;2022-10-16T14:13:29;2.33;;;1.88;;
46348;SDS011;32057;47.830;19.046;2022-10-16T14:16:02;1.95;;;1.80;;
46348;SDS011;32057;47.830;19.046;2022-10-16T14:18:33;4.60;;;1.50;;
46348;SDS011;32057;47.830;19.046;2022-10-16T14:21:03;2.58;;;2.00;;
46348;SDS011;32057;47.830;19.046;2022-10-16T14:23:35;2.15;;;1.67;;
46348;SDS011;32057;47.830;19.046;2022-10-16T14:28:34;2.15;;;1.90;;
46348;SDS011;32057;47.830;19.046;2022-10-16T14:31:01;1.58;;;1.48;;
46348;SDS011;32057;47.830;19.046;2022-10-16T14:36:01;1.60;;;1.50;;
46348;SDS011;32057;47.830;19.046;2022-10-16T14:38:49;1.52;;;1.42;;
46348;SDS011;32057;47.830;19.046;2022-10-16T14:41:22;1.48;;;1.33;;
46348;SDS011;32057;47.830;19.046;2022-10-16T14:43:55;1.95;;;1.60;;
46348;SDS011;32057;47.830;19.046;2022-10-16T14:46:33;2.83;;;1.90;;
46348;SDS011;32057;47.830;19.046;2022-10-16T14:49:12;2.67;;;1.48;;
46348;SDS011;32057;47.830;19.046;2022-10-16T14:51:41;2.22;;;1.55;;
46348;SDS011;32057;47.830;19.046;2022-10-16T14:54:09;2.08;;;1.88;;
46348;SDS011;32057;47.830;19.046;2022-10-16T14:56:42;2.70;;;1.80;;
46348;SDS011;32057;47.830;19.046;2022-10-16T14:59:34;1.75;;;1.60;;
46348;SDS011;32057;47.830;19.046;2022-10-16T15:04:52;3.08;;;1.90;;
46348;SDS011;32057;47.830;19.046;2022-10-16T15:07:18;3.50;;;2.03;;
46348;SDS011;32057;47.830;19.046;2022-10-16T15:09:44;2.13;;;2.03;;
46348;SDS011;32057;47.830;19.046;2022-10-16T15:12:09;1.70;;;1.60;;
46348;SDS011;32057;47.830;19.046;2022-10-16T15:14:35;1.52;;;1.42;;
46348;SDS011;32057;47.830;19.046;2022-10-16T15:17:00;1.75;;;1.65;;
46348;SDS011;32057;47.830;19.046;2022-10-16T15:19:26;1.75;;;1.48;;
46348;SDS011;32057;47.830;19.046;2022-10-16T15:21:51;3.05;;;2.03;;
46348;SDS011;32057;47.830;19.046;2022-10-16T15:24:17;2.67;;;1.75;;
46348;SDS011;32057;47.830;19.046;2022-10-16T15:26:43;2.20;;;1.75;;
46348;SDS011;32057;47.830;19.046;2022-10-16T15:29:10;2.38;;;1.88;;
46348;SDS011;32057;47.830;19.046;2022-10-16T15:31:36;1.98;;;1.48;;
46348;SDS011;32057;47.830;19.046;2022-10-16T15:34:02;4.38;;;2.75;;
46348;SDS011;32057;47.830;19.046;2022-10-16T15:36:30;2.30;;;1.75;;
46348;SDS011;32057;47.830;19.046;2022-10-16T15:39:05;1.65;;;1.55;;
46348;SDS011;32057;47.830;19.046;2022-10-16T15:41:37;2.58;;;2.22;;
46348;SDS011;32057;47.830;19.046;2022-10-16T15:44:03;2.83;;;1.80;;
46348;SDS011;32057;47.830;19.046;2022-10-16T15:46:28;1.92;;;1.38;;
46348;SDS011;32057;47.830;19.046;2022-10-16T15:48:56;2.00;;;1.70;;
46348;SDS011;32057;47.830;19.046;2022-10-16T15:51:23;2.05;;;1.85;;
46348;SDS011;32057;47.830;19.046;2022-10-16T15:53:48;3.20;;;2.08;;
46348;SDS011;32057;47.830;19.046;2022-10-16T15:56:15;4.13;;;2.25;;
46348;SDS011;32057;47.830;19.046;2022-10-16T15:58:41;6.82;;;2.20;;
46348;SDS011;32057;47.830;19.046;2022-10-16T16:01:07;1.40;;;1.30;;
46348;SDS011;32057;47.830;19.046;2022-10-16T16:03:35;2.30;;;2.10;;
46348;SDS011;32057;47.830;19.046;2022-10-16T16:06:05;2.28;;;1.83;;
46348;SDS011;32057;47.830;19.046;2022-10-16T16:08:32;16.25;;;2.88;;
46348;SDS011;32057;47.830;19.046;2022-10-16T16:10:59;2.50;;;1.92;;
46348;SDS011;32057;47.830;19.046;2022-10-16T16:13:30;2.38;;;2.13;;
46348;SDS011;32057;47.830;19.046;2022-10-16T16:15:55;4.25;;;2.33;;
46348;SDS011;32057;47.830;19.046;2022-10-16T16:18:21;2.15;;;1.90;;
46348;SDS011;32057;47.830;19.046;2022-10-16T16:20:47;13.57;;;2.70;;
46348;SDS011;32057;47.830;19.046;2022-10-16T16:23:13;4.03;;;2.53;;
46348;SDS011;32057;47.830;19.046;2022-10-16T16:25:38;2.85;;;1.77;;
46348;SDS011;32057;47.830;19.046;2022-10-16T16:28:04;4.60;;;3.58;;
46348;SDS011;32057;47.830;19.046;2022-10-16T16:30:29;4.75;;;3.10;;
46348;SDS011;32057;47.830;19.046;2022-10-16T16:32:55;8.20;;;3.60;;
46348;SDS011;32057;47.830;19.046;2022-10-16T16:35:20;4.47;;;2.88;;
46348;SDS011;32057;47.830;19.046;2022-10-16T16:37:46;7.88;;;4.55;;
46348;SDS011;32057;47.830;19.046;2022-10-16T16:40:12;8.43;;;4.40;;
46348;SDS011;32057;47.830;19.046;2022-10-16T16:42:38;9.73;;;4.75;;
46348;SDS011;32057;47.830;19.046;2022-10-16T16:45:04;8.15;;;4.28;;
46348;SDS011;32057;47.830;19.046;2022-10-16T16:47:29;7.40;;;4.93;;
46348;SDS011;32057;47.830;19.046;2022-10-16T16:49:55;6.90;;;4.72;;
46348;SDS011;32057;47.830;19.046;2022-10-16T16:52:20;7.35;;;4.93;;
46348;SDS011;32057;47.830;19.046;2022-10-16T16:54:47;5.43;;;4.10;;
46348;SDS011;32057;47.830;19.046;2022-10-16T16:57:17;7.55;;;4.28;;
46348;SDS011;32057;47.830;19.046;2022-10-16T16:59:45;8.23;;;4.88;;
46348;SDS011;32057;47.830;19.046;2022-10-16T17:02:10;5.60;;;3.60;;
46348;SDS011;32057;47.830;19.046;2022-10-16T17:04:36;6.35;;;3.70;;
46348;SDS011;32057;47.830;19.046;2022-10-16T17:07:01;3.17;;;2.88;;
46348;SDS011;32057;47.830;19.046;2022-10-16T17:09:27;3.90;;;3.00;;
46348;SDS011;32057;47.830;19.046;2022-10-16T17:11:52;3.50;;;3.20;;
46348;SDS011;32057;47.830;19.046;2022-10-16T17:14:18;6.22;;;3.00;;
46348;SDS011;32057;47.830;19.046;2022-10-16T17:16:43;8.93;;;4.05;;
46348;SDS011;32057;47.830;19.046;2022-10-16T17:19:13;4.22;;;2.90;;
46348;SDS011;32057;47.830;19.046;2022-10-16T17:21:40;3.17;;;2.53;;
46348;SDS011;32057;47.830;19.046;2022-10-16T17:24:06;7.97;;;2.95;;
46348;SDS011;32057;47.830;19.046;2022-10-16T17:26:32;5.30;;;3.20;;
46348;SDS011;32057;47.830;19.046;2022-10-16T17:28:59;3.75;;;2.63;;
46348;SDS011;32057;47.830;19.046;2022-10-16T17:31:29;4.07;;;2.75;;
46348;SDS011;32057;47.830;19.046;2022-10-16T17:33:57;3.55;;;2.45;;
46348;SDS011;32057;47.830;19.046;2022-10-16T17:36:23;4.78;;;3.33;;
46348;SDS011;32057;47.830;19.046;2022-10-16T17:38:49;2.88;;;2.38;;
46348;SDS011;32057;47.830;19.046;2022-10-16T17:41:21;3.35;;;2.30;;
46348;SDS011;32057;47.830;19.046;2022-10-16T17:43:48;2.63;;;2.13;;
46348;SDS011;32057;47.830;19.046;2022-10-16T17:46:15;4.20;;;3.80;;
46348;SDS011;32057;47.830;19.046;2022-10-16T17:48:46;2.95;;;2.30;;
46348;SDS011;32057;47.830;19.046;2022-10-16T17:51:14;2.10;;;1.90;;
46348;SDS011;32057;47.830;19.046;2022-10-16T17:53:41;2.47;;;1.73;;